sensor_id;sensor_type;location;lat;lon;timestamp;temperature;humidity
6439;DHT22;3252;52.540;13.290;2023-12-07T20:39:42;15.30;94.60
6439;DHT22;3252;52.540;13.290;2023-12-07T20:45:52;22.60;90.70
6439;DHT22;3252;52.540;13.290;2023-12-07T20:56:03;22.60;90.60
6439;DHT22;3252;52.540;13.290;2023-12-07T20:58:05;22.80;90.50
6439;DHT22;3252;52.540;13.290;2023-12-07T21:00:08;22.90;90.80
6439;DHT22;3252;52.540;13.290;2023-12-07T21:02:12;22.90;90.50
6439;DHT22;3252;52.540;13.290;2023-12-07T21:04:14;23.00;90.60
6439;DHT22;3252;52.540;13.290;2023-12-07T21:06:16;23.00;90.50
6439;DHT22;3252;52.540;13.290;2023-12-07T21:08:18;23.00;90.50
6439;DHT22;3252;52.540;13.290;2023-12-07T21:10:20;23.10;90.60
6439;DHT22;3252;52.540;13.290;2023-12-07T21:12:22;23.10;90.60
6439;DHT22;3252;52.540;13.290;2023-12-07T21:14:24;23.10;90.60
6439;DHT22;3252;52.540;13.290;2023-12-07T21:16:26;23.20;90.60
6439;DHT22;3252;52.540;13.290;2023-12-07T21:18:30;23.20;90.60
6439;DHT22;3252;52.540;13.290;2023-12-07T21:20:32;23.20;90.60
6439;DHT22;3252;52.540;13.290;2023-12-07T21:22:34;23.20;90.60
6439;DHT22;3252;52.540;13.290;2023-12-07T21:24:36;23.30;90.70
6439;DHT22;3252;52.540;13.290;2023-12-07T21:26:38;23.30;90.70
6439;DHT22;3252;52.540;13.290;2023-12-07T21:28:41;23.30;91.00
6439;DHT22;3252;52.540;13.290;2023-12-07T21:30:43;23.30;92.90
6439;DHT22;3252;52.540;13.290;2023-12-07T21:32:45;23.40;91.20
6439;DHT22;3252;52.540;13.290;2023-12-07T21:34:48;23.40;91.00
6439;DHT22;3252;52.540;13.290;2023-12-07T21:36:50;23.40;91.00
6439;DHT22;3252;52.540;13.290;2023-12-07T21:38:53;23.40;91.00
6439;DHT22;3252;52.540;13.290;2023-12-07T21:40:55;23.40;91.00
6439;DHT22;3252;52.540;13.290;2023-12-07T21:42:59;23.50;91.00
6439;DHT22;3252;52.540;13.290;2023-12-07T21:45:02;23.50;91.00
6439;DHT22;3252;52.540;13.290;2023-12-07T21:47:05;23.50;91.00
6439;DHT22;3252;52.540;13.290;2023-12-07T21:49:08;23.50;91.00
6439;DHT22;3252;52.540;13.290;2023-12-07T21:51:11;23.60;91.10
6439;DHT22;3252;52.540;13.290;2023-12-07T21:53:13;23.60;91.10
6439;DHT22;3252;52.540;13.290;2023-12-07T21:55:15;23.60;91.10
6439;DHT22;3252;52.540;13.290;2023-12-07T21:57:17;23.60;91.20
6439;DHT22;3252;52.540;13.290;2023-12-07T21:59:20;23.60;91.30
6439;DHT22;3252;52.540;13.290;2023-12-07T22:01:22;23.60;91.40
6439;DHT22;3252;52.540;13.290;2023-12-07T22:03:24;23.60;91.40
6439;DHT22;3252;52.540;13.290;2023-12-07T22:05:27;23.60;91.50
6439;DHT22;3252;52.540;13.290;2023-12-07T22:07:29;23.60;92.10
6439;DHT22;3252;52.540;13.290;2023-12-07T22:09:31;23.60;91.70
6439;DHT22;3252;52.540;13.290;2023-12-07T22:11:32;23.60;91.70
6439;DHT22;3252;52.540;13.290;2023-12-07T22:13:34;23.60;91.90
6439;DHT22;3252;52.540;13.290;2023-12-07T22:15:35;23.60;92.80
6439;DHT22;3252;52.540;13.290;2023-12-07T22:17:38;23.60;93.10
6439;DHT22;3252;52.540;13.290;2023-12-07T22:19:40;23.50;93.80
6439;DHT22;3252;52.540;13.290;2023-12-07T22:44:16;23.50;93.60
6439;DHT22;3252;52.540;13.290;2023-12-07T22:46:18;7.40;99.40
6439;DHT22;3252;52.540;13.290;2023-12-07T23:23:05;7.00;99.90
6439;DHT22;3252;52.540;13.290;2023-12-07T23:25:06;10.40;95.50
6439;DHT22;3252;52.540;13.290;2023-12-07T23:27:08;8.70;98.20
6439;DHT22;3252;52.540;13.290;2023-12-07T23:29:12;7.40;99.90
6439;DHT22;3252;52.540;13.290;2023-12-07T23:31:14;7.50;99.90
6439;DHT22;3252;52.540;13.290;2023-12-07T23:33:16;6.60;99.90
6439;DHT22;3252;52.540;13.290;2023-12-07T23:35:17;6.40;99.90
6439;DHT22;3252;52.540;13.290;2023-12-07T23:37:19;6.90;99.90
6439;DHT22;3252;52.540;13.290;2023-12-07T23:39:21;6.90;99.90
6439;DHT22;3252;52.540;13.290;2023-12-07T23:41:24;6.90;99.90
6439;DHT22;3252;52.540;13.290;2023-12-07T23:43:26;6.60;99.90
6439;DHT22;3252;52.540;13.290;2023-12-07T23:45:29;7.50;99.90
6439;DHT22;3252;52.540;13.290;2023-12-07T23:47:31;8.70;99.90
6439;DHT22;3252;52.540;13.290;2023-12-07T23:49:33;10.00;99.90
6439;DHT22;3252;52.540;13.290;2023-12-07T23:51:35;11.10;99.90
6439;DHT22;3252;52.540;13.290;2023-12-07T23:53:37;12.20;99.90
6439;DHT22;3252;52.540;13.290;2023-12-07T23:55:39;13.10;99.90
6439;DHT22;3252;52.540;13.290;2023-12-07T23:57:41;13.90;99.90
6439;DHT22;3252;52.540;13.290;2023-12-07T23:59:43;14.60;99.90
